Time;durP1;ratioP1;P1;durP2;ratioP2;P2;SDS_P1;SDS_P2;PMS_P1;PMS_P2;Temp;Humidity;BMP_temperature;BMP_pressure;BME280_temperature;BME280_humidity;BME280_pressure;Samples;Min_cycle;Max_cycle;Signal;HPM_P1;HPM_P2
2022/07/24 00:00:09;;;;;;;11.60;8.10;;;;;;;;;;103121;1320;22559;-28
2022/07/24 00:02:38;;;;;;;15.10;9.40;;;;;;;;;;103202;1322;22572;-28
2022/07/24 00:05:07;;;;;;;13.00;8.50;;;;;;;;;;103234;1320;23070;-29
2022/07/24 00:07:36;;;;;;;19.80;9.20;;;;;;;;;;103112;1325;22719;-30
2022/07/24 00:10:05;;;;;;;9.90;8.00;;;;;;;;;;103129;1314;22739;-29
2022/07/24 00:12:34;;;;;;;13.20;10.40;;;;;;;;;;103387;1326;22561;-28
2022/07/24 00:15:03;;;;;;;13.90;9.30;;;;;;;;;;103120;1320;23054;-26
2022/07/24 00:17:32;;;;;;;13.60;8.40;;;;;;;;;;103366;1326;22593;-29
2022/07/24 00:20:01;;;;;;;13.90;7.40;;;;;;;;;;103149;1314;22724;-29
2022/07/24 00:22:30;;;;;;;9.80;6.90;;;;;;;;;;103129;1319;22714;-29
2022/07/24 00:24:59;;;;;;;15.00;9.30;;;;;;;;;;103078;1326;22819;-29
2022/07/24 00:27:27;;;;;;;12.20;8.80;;;;;;;;;;103276;1320;23074;-29
2022/07/24 00:29:56;;;;;;;12.20;8.00;;;;;;;;;;103218;1327;22731;-28
2022/07/24 00:32:25;;;;;;;16.10;7.30;;;;;;;;;;103240;1313;22564;-28
2022/07/24 00:34:54;;;;;;;7.60;6.50;;;;;;;;;;103113;1326;22565;-24
2022/07/24 00:37:23;;;;;;;9.50;6.00;;;;;;;;;;103114;1315;22821;-30
2022/07/24 00:39:51;;;;;;;9.50;7.90;;;;;;;;;;103158;1320;22549;-31
2022/07/24 00:42:20;;;;;;;8.70;7.10;;;;;;;;;;103221;1319;22545;-27
2022/07/24 00:44:49;;;;;;;7.90;7.10;;;;;;;;;;103255;1320;22734;-27
2022/07/24 00:47:17;;;;;;;7.80;6.70;;;;;;;;;;103135;1314;22732;-30
2022/07/24 00:49:46;;;;;;;6.80;6.20;;;;;;;;;;103063;1323;22574;-25
2022/07/24 00:52:15;;;;;;;14.10;7.70;;;;;;;;;;103089;1323;22562;-24
2022/07/24 00:54:44;;;;;;;10.70;7.60;;;;;;;;;;103118;1326;25319;-30
2022/07/24 00:57:13;;;;;;;9.80;6.40;;;;;;;;;;103308;1318;22566;-23
2022/07/24 00:59:42;;;;;;;9.80;7.00;;;;;;;;;;103217;1326;22566;-22
2022/07/24 01:02:11;;;;;;;17.40;7.70;;;;;;;;;;103274;1315;22678;-23
2022/07/24 01:04:40;;;;;;;12.10;8.60;;;;;;;;;;103235;1326;22708;-30
2022/07/24 01:07:09;;;;;;;12.00;8.10;;;;;;;;;;103151;1314;22564;-28
2022/07/24 01:09:38;;;;;;;11.40;6.90;;;;;;;;;;103187;1326;22836;-30
2022/07/24 01:12:07;;;;;;;9.90;6.40;;;;;;;;;;103257;1314;22555;-30
2022/07/24 01:14:36;;;;;;;10.20;7.60;;;;;;;;;;103072;1327;23028;-30
2022/07/24 01:17:05;;;;;;;7.30;6.60;;;;;;;;;;103176;1314;22545;-26
2022/07/24 01:19:33;;;;;;;10.70;7.40;;;;;;;;;;103356;1322;22723;-24
2022/07/24 01:22:02;;;;;;;10.60;7.00;;;;;;;;;;103072;1320;22611;-28
2022/07/24 01:24:31;;;;;;;7.90;6.60;;;;;;;;;;103185;1315;22711;-29
2022/07/24 01:27:00;;;;;;;11.50;7.60;;;;;;;;;;103110;1320;22696;-26
2022/07/24 01:29:29;;;;;;;11.40;9.30;;;;;;;;;;103135;1323;22665;-25
2022/07/24 01:31:58;;;;;;;9.20;6.90;;;;;;;;;;103119;1297;22568;-29
2022/07/24 01:34:27;;;;;;;10.90;8.20;;;;;;;;;;103156;1326;22696;-28
2022/07/24 01:36:56;;;;;;;9.50;7.90;;;;;;;;;;103226;1315;23052;-26
2022/07/24 01:39:25;;;;;;;9.80;8.60;;;;;;;;;;103300;1326;22550;-31
2022/07/24 01:41:54;;;;;;;12.20;8.80;;;;;;;;;;103067;1314;22957;-25
2022/07/24 01:44:22;;;;;;;10.70;8.80;;;;;;;;;;103164;1326;22806;-29
2022/07/24 01:46:51;;;;;;;7.50;6.50;;;;;;;;;;103124;1320;22486;-26
2022/07/24 01:49:20;;;;;;;17.20;7.70;;;;;;;;;;103391;1326;25972;-29
2022/07/24 01:51:49;;;;;;;8.50;7.60;;;;;;;;;;103185;1323;22958;-28
2022/07/24 01:54:17;;;;;;;10.10;7.20;;;;;;;;;;103088;1323;22577;-30
2022/07/24 01:56:46;;;;;;;10.50;8.30;;;;;;;;;;102428;1313;1003786;-29
2022/07/24 01:59:15;;;;;;;11.20;7.70;;;;;;;;;;102434;1326;1003503;-26
2022/07/24 02:01:44;;;;;;;7.90;6.20;;;;;;;;;;103217;1315;22977;-29
2022/07/24 02:04:12;;;;;;;10.40;9.00;;;;;;;;;;103140;1320;23152;-25
2022/07/24 02:06:41;;;;;;;9.20;7.80;;;;;;;;;;103351;1318;22699;-28
2022/07/24 02:09:10;;;;;;;7.90;7.10;;;;;;;;;;103103;1320;22567;-28
2022/07/24 02:11:39;;;;;;;11.90;7.40;;;;;;;;;;103147;1314;22581;-31
2022/07/24 02:14:08;;;;;;;12.90;9.00;;;;;;;;;;103371;1321;22712;-29
2022/07/24 02:16:37;;;;;;;8.70;6.70;;;;;;;;;;103186;1313;23011;-30
2022/07/24 02:19:06;;;;;;;15.40;7.90;;;;;;;;;;103092;1326;22691;-25
2022/07/24 02:21:34;;;;;;;14.80;8.50;;;;;;;;;;103223;1314;22722;-30
2022/07/24 02:24:03;;;;;;;13.30;7.80;;;;;;;;;;103319;1323;24280;-25
2022/07/24 02:26:32;;;;;;;11.20;9.20;;;;;;;;;;103101;1315;22710;-31
2022/07/24 02:29:01;;;;;;;8.10;6.40;;;;;;;;;;103085;1320;22594;-29
2022/07/24 02:31:30;;;;;;;11.90;8.00;;;;;;;;;;103288;1314;22717;-29
2022/07/24 02:33:58;;;;;;;10.00;9.00;;;;;;;;;;103309;1325;22669;-27
2022/07/24 02:36:27;;;;;;;11.00;6.90;;;;;;;;;;103104;1320;22712;-31
2022/07/24 02:38:56;;;;;;;7.80;7.00;;;;;;;;;;103144;1323;22824;-29
2022/07/24 02:41:25;;;;;;;11.70;8.60;;;;;;;;;;103211;1314;22807;-30
2022/07/24 02:43:54;;;;;;;13.00;9.60;;;;;;;;;;103168;1323;22725;-28
2022/07/24 02:46:22;;;;;;;10.90;9.30;;;;;;;;;;103234;1314;22578;-31
2022/07/24 02:48:51;;;;;;;12.00;9.50;;;;;;;;;;103115;1323;22571;-29
2022/07/24 02:51:20;;;;;;;13.10;6.70;;;;;;;;;;103013;1320;22586;-27
2022/07/24 02:53:49;;;;;;;22.50;9.40;;;;;;;;;;103150;1326;22562;-29
2022/07/24 02:56:17;;;;;;;11.80;8.00;;;;;;;;;;103136;1323;22723;-25
2022/07/24 02:58:46;;;;;;;8.70;6.90;;;;;;;;;;103120;1323;22551;-23
2022/07/24 03:01:15;;;;;;;9.40;8.50;;;;;;;;;;103153;1314;22567;-29
2022/07/24 03:03:44;;;;;;;9.50;8.00;;;;;;;;;;103120;1326;22723;-25
2022/07/24 03:06:12;;;;;;;8.30;6.40;;;;;;;;;;103269;1320;22580;-25
2022/07/24 03:08:41;;;;;;;8.70;6.50;;;;;;;;;;103279;1326;22721;-25
2022/07/24 03:11:10;;;;;;;8.50;7.20;;;;;;;;;;103179;1323;22860;-31
2022/07/24 03:13:39;;;;;;;10.80;7.90;;;;;;;;;;103095;1326;22835;-29
2022/07/24 03:16:08;;;;;;;9.50;7.50;;;;;;;;;;103115;1314;22979;-31
2022/07/24 03:18:36;;;;;;;10.00;8.20;;;;;;;;;;103121;1323;22762;-29
2022/07/24 03:21:05;;;;;;;8.00;6.90;;;;;;;;;;103201;1325;22675;-25
2022/07/24 03:23:34;;;;;;;11.60;8.80;;;;;;;;;;103283;1320;23052;-29
2022/07/24 03:26:03;;;;;;;11.10;8.20;;;;;;;;;;103212;1320;22570;-25
2022/07/24 03:28:32;;;;;;;9.10;8.20;;;;;;;;;;103222;1320;22832;-25
2022/07/24 03:31:01;;;;;;;6.30;5.60;;;;;;;;;;103107;1320;22873;-29
2022/07/24 03:33:30;;;;;;;5.90;5.40;;;;;;;;;;103318;1315;23029;-26
2022/07/24 03:35:59;;;;;;;23.00;9.00;;;;;;;;;;103138;1314;22899;-29
2022/07/24 03:38:27;;;;;;;12.90;8.80;;;;;;;;;;103239;1323;22860;-29
2022/07/24 03:40:56;;;;;;;8.30;7.50;;;;;;;;;;103214;1313;22507;-25
2022/07/24 03:43:25;;;;;;;14.10;6.50;;;;;;;;;;103248;1323;22722;-24
2022/07/24 03:45:54;;;;;;;17.90;8.40;;;;;;;;;;103226;1321;22861;-28
2022/07/24 03:48:23;;;;;;;6.60;6.00;;;;;;;;;;103078;1323;22581;-24
2022/07/24 03:50:51;;;;;;;8.90;6.30;;;;;;;;;;102999;1317;22810;-29
2022/07/24 03:53:20;;;;;;;9.70;6.50;;;;;;;;;;103100;1320;22880;-25
2022/07/24 03:55:49;;;;;;;10.80;7.30;;;;;;;;;;103103;1314;22862;-31
2022/07/24 03:58:18;;;;;;;9.20;6.20;;;;;;;;;;103195;1326;22857;-28
2022/07/24 04:00:47;;;;;;;9.40;7.50;;;;;;;;;;103109;1313;22574;-30
2022/07/24 04:03:16;;;;;;;8.40;6.80;;;;;;;;;;102759;1320;571133;-29
2022/07/24 04:05:44;;;;;;;8.30;6.20;;;;;;;;;;103117;1314;22555;-27
2022/07/24 04:08:13;;;;;;;7.60;6.30;;;;;;;;;;103155;1323;22780;-25
2022/07/24 04:10:42;;;;;;;7.50;6.40;;;;;;;;;;103033;1313;22680;-28
2022/07/24 04:13:11;;;;;;;30.80;7.10;;;;;;;;;;103069;1314;22576;-27
2022/07/24 04:15:40;;;;;;;9.40;8.10;;;;;;;;;;103170;1314;22578;-28
2022/07/24 04:18:08;;;;;;;7.60;6.60;;;;;;;;;;103284;1323;22711;-26
2022/07/24 04:20:37;;;;;;;7.00;6.30;;;;;;;;;;103130;1320;23970;-24
2022/07/24 04:23:06;;;;;;;7.30;6.70;;;;;;;;;;103150;1323;22562;-25
2022/07/24 04:25:35;;;;;;;10.20;7.30;;;;;;;;;;103134;1323;22561;-28
2022/07/24 04:28:04;;;;;;;10.50;6.70;;;;;;;;;;103125;1323;22723;-27
2022/07/24 04:30:32;;;;;;;16.30;7.90;;;;;;;;;;103222;1314;22843;-25
2022/07/24 04:33:01;;;;;;;14.60;7.40;;;;;;;;;;103143;1328;22550;-30
2022/07/24 04:35:31;;;;;;;15.20;9.10;;;;;;;;;;103107;1320;22565;-26
2022/07/24 04:38:00;;;;;;;13.00;9.30;;;;;;;;;;103274;1320;22556;-26
2022/07/24 04:40:28;;;;;;;16.20;7.10;;;;;;;;;;103308;1320;22551;-24
2022/07/24 04:42:57;;;;;;;17.70;8.60;;;;;;;;;;103145;1323;22642;-26
2022/07/24 04:45:26;;;;;;;10.00;8.50;;;;;;;;;;103129;1313;22589;-25
2022/07/24 04:47:55;;;;;;;10.10;6.70;;;;;;;;;;103179;1323;22681;-25
2022/07/24 04:50:23;;;;;;;9.40;8.00;;;;;;;;;;103123;1314;22564;-31
2022/07/24 04:52:52;;;;;;;13.80;10.80;;;;;;;;;;103165;1314;22725;-25
2022/07/24 04:55:21;;;;;;;14.40;8.60;;;;;;;;;;103249;1320;22583;-25
2022/07/24 04:57:50;;;;;;;6.50;5.80;;;;;;;;;;103159;1314;22682;-29
2022/07/24 05:00:19;;;;;;;13.70;8.50;;;;;;;;;;103259;1326;22575;-25
2022/07/24 05:02:48;;;;;;;9.40;8.20;;;;;;;;;;103116;1323;22561;-29
2022/07/24 05:05:17;;;;;;;7.50;6.70;;;;;;;;;;103096;1323;22570;-28
2022/07/24 05:07:46;;;;;;;15.20;8.60;;;;;;;;;;103128;1320;22561;-25
2022/07/24 05:10:15;;;;;;;7.90;7.00;;;;;;;;;;103276;1315;22565;-29
2022/07/24 05:12:43;;;;;;;9.30;7.00;;;;;;;;;;103076;1320;22571;-29
2022/07/24 05:15:12;;;;;;;12.40;9.30;;;;;;;;;;103119;1326;22823;-26
2022/07/24 05:17:41;;;;;;;5.10;4.60;;;;;;;;;;103368;1326;22546;-24
2022/07/24 05:20:10;;;;;;;9.10;8.20;;;;;;;;;;103049;1320;22567;-28
2022/07/24 05:22:39;;;;;;;11.00;7.20;;;;;;;;;;103245;1320;22712;-25
2022/07/24 05:25:08;;;;;;;9.20;7.40;;;;;;;;;;103106;1314;22569;-28
2022/07/24 05:27:37;;;;;;;13.30;8.70;;;;;;;;;;103149;1320;22794;-31
2022/07/24 05:30:06;;;;;;;8.20;6.80;;;;;;;;;;103257;1319;22565;-27
2022/07/24 05:32:35;;;;;;;8.50;7.10;;;;;;;;;;103067;1321;22565;-27
2022/07/24 05:35:04;;;;;;;12.40;9.30;;;;;;;;;;103278;1313;22561;-27
2022/07/24 05:37:33;;;;;;;8.90;4.90;;;;;;;;;;103132;1321;22720;-25
2022/07/24 05:40:02;;;;;;;7.50;6.70;;;;;;;;;;103038;1319;22686;-30
2022/07/24 05:42:31;;;;;;;6.20;4.90;;;;;;;;;;103077;1314;22694;-29
2022/07/24 05:45:00;;;;;;;11.40;7.30;;;;;;;;;;103285;1313;22598;-26
2022/07/24 05:47:34;;;;;;;9.60;6.80;;;;;;;;;;103130;1313;22578;-29
2022/07/24 05:50:05;;;;;;;9.80;5.40;;;;;;;;;;103292;1322;22773;-25
2022/07/24 05:52:34;;;;;;;7.90;7.10;;;;;;;;;;103092;1314;22732;-29
2022/07/24 05:55:04;;;;;;;8.60;6.70;;;;;;;;;;103157;1320;22851;-25
2022/07/24 05:57:32;;;;;;;8.90;6.90;;;;;;;;;;103187;1326;22571;-31
2022/07/24 06:00:01;;;;;;;6.80;5.40;;;;;;;;;;103232;1313;22575;-25
2022/07/24 06:02:30;;;;;;;14.70;13.40;;;;;;;;;;103167;1313;22869;-28
2022/07/24 06:04:59;;;;;;;8.00;5.70;;;;;;;;;;103135;1313;24396;-29
2022/07/24 06:07:28;;;;;;;5.30;4.90;;;;;;;;;;103120;1323;23181;-29
2022/07/24 06:09:57;;;;;;;11.50;6.50;;;;;;;;;;103261;1313;22562;-27
2022/07/24 06:12:25;;;;;;;7.50;5.40;;;;;;;;;;103128;1314;22575;-29
2022/07/24 06:14:54;;;;;;;6.50;6.00;;;;;;;;;;103231;1314;22860;-25
2022/07/24 06:17:23;;;;;;;10.10;6.70;;;;;;;;;;103249;1313;22703;-29
2022/07/24 06:19:52;;;;;;;6.90;6.30;;;;;;;;;;103289;1323;22696;-27
2022/07/24 06:22:21;;;;;;;9.10;7.40;;;;;;;;;;103120;1321;22659;-25
2022/07/24 06:24:49;;;;;;;7.90;5.60;;;;;;;;;;103205;1323;23034;-29
2022/07/24 06:27:18;;;;;;;5.30;4.20;;;;;;;;;;103088;1314;22966;-30
2022/07/24 06:29:47;;;;;;;6.20;5.60;;;;;;;;;;103078;1323;22594;-30
2022/07/24 06:32:16;;;;;;;6.20;4.40;;;;;;;;;;103106;1323;22866;-26
2022/07/24 06:34:44;;;;;;;7.50;5.30;;;;;;;;;;103113;1320;22997;-30
2022/07/24 06:37:13;;;;;;;10.90;6.90;;;;;;;;;;103268;1313;22581;-30
2022/07/24 06:39:42;;;;;;;4.90;4.30;;;;;;;;;;103156;1313;22673;-25
2022/07/24 06:42:11;;;;;;;4.30;3.30;;;;;;;;;;103120;1313;22761;-31
2022/07/24 06:44:40;;;;;;;6.10;5.00;;;;;;;;;;103185;1323;22721;-26
2022/07/24 06:47:08;;;;;;;4.70;4.20;;;;;;;;;;103225;1313;22555;-29
2022/07/24 06:49:46;;;;;;;4.80;4.40;;;;;;;;;;103112;1325;22559;-29
2022/07/24 06:52:14;;;;;;;5.90;4.60;;;;;;;;;;103296;1323;22712;-31
2022/07/24 06:54:43;;;;;;;7.20;4.70;;;;;;;;;;103147;1320;22716;-31
2022/07/24 06:57:13;;;;;;;5.40;3.40;;;;;;;;;;103095;1314;22819;-29
2022/07/24 06:59:42;;;;;;;4.80;4.00;;;;;;;;;;103286;1320;22782;-29
2022/07/24 07:02:11;;;;;;;3.80;3.30;;;;;;;;;;103039;1313;22562;-26
2022/07/24 07:04:40;;;;;;;3.10;2.80;;;;;;;;;;103137;1323;22579;-31
2022/07/24 07:07:09;;;;;;;3.40;2.60;;;;;;;;;;103231;1314;22579;-25
2022/07/24 07:09:38;;;;;;;6.70;2.60;;;;;;;;;;103157;1320;22772;-29
2022/07/24 07:12:07;;;;;;;4.80;2.00;;;;;;;;;;103296;1313;22985;-30
2022/07/24 07:14:36;;;;;;;2.40;1.70;;;;;;;;;;103123;1320;22748;-30
2022/07/24 07:17:05;;;;;;;2.30;2.10;;;;;;;;;;103206;1323;22867;-27
2022/07/24 07:19:34;;;;;;;1.70;1.50;;;;;;;;;;103308;1323;22964;-26
2022/07/24 07:22:02;;;;;;;6.90;2.10;;;;;;;;;;103144;1314;22583;-25
2022/07/24 07:24:31;;;;;;;2.30;1.70;;;;;;;;;;103253;1314;22672;-25
2022/07/24 07:27:00;;;;;;;1.90;1.20;;;;;;;;;;103235;1313;22906;-29
2022/07/24 07:29:29;;;;;;;1.50;1.30;;;;;;;;;;103130;1323;22684;-25
2022/07/24 07:31:58;;;;;;;1.80;1.40;;;;;;;;;;103126;1317;22678;-26
2022/07/24 07:34:27;;;;;;;2.60;1.40;;;;;;;;;;103273;1328;22562;-25
2022/07/24 07:36:56;;;;;;;1.80;1.30;;;;;;;;;;103190;1320;22687;-29
2022/07/24 07:39:25;;;;;;;1.10;1.10;;;;;;;;;;103235;1323;22589;-25
2022/07/24 07:41:53;;;;;;;2.20;1.30;;;;;;;;;;103174;1313;22565;-26
2022/07/24 07:44:22;;;;;;;1.00;0.60;;;;;;;;;;103293;1323;22963;-29
2022/07/24 07:46:51;;;;;;;1.70;0.80;;;;;;;;;;103089;1313;22826;-30
2022/07/24 07:49:20;;;;;;;9.20;1.50;;;;;;;;;;103159;1323;22581;-31
2022/07/24 07:51:51;;;;;;;0.80;0.40;;;;;;;;;;103179;1320;22566;-26
2022/07/24 07:54:20;;;;;;;0.70;0.40;;;;;;;;;;103110;1323;23155;-26
2022/07/24 07:56:48;;;;;;;0.90;0.50;;;;;;;;;;103133;1323;24098;-30
2022/07/24 07:59:17;;;;;;;0.60;0.30;;;;;;;;;;103160;1320;22735;-29
2022/07/24 08:01:46;;;;;;;1.20;0.60;;;;;;;;;;103326;1314;22567;-28
2022/07/24 08:04:24;;;;;;;0.80;0.80;;;;;;;;;;103097;1314;22558;-27
2022/07/24 08:06:53;;;;;;;0.90;0.50;;;;;;;;;;103290;1320;22705;-25
2022/07/24 08:09:22;;;;;;;2.10;0.70;;;;;;;;;;103161;1320;22562;-25
2022/07/24 08:11:51;;;;;;;1.40;0.80;;;;;;;;;;103222;1313;22542;-26
2022/07/24 08:14:19;;;;;;;0.90;0.60;;;;;;;;;;103166;1323;22834;-29
2022/07/24 08:16:48;;;;;;;1.20;1.00;;;;;;;;;;103121;1323;22558;-28
2022/07/24 08:19:17;;;;;;;2.60;0.80;;;;;;;;;;103178;1320;22561;-25
2022/07/24 08:21:46;;;;;;;1.20;0.70;;;;;;;;;;103103;1313;22583;-29
2022/07/24 08:24:20;;;;;;;0.90;0.50;;;;;;;;;;103131;1320;22555;-27
2022/07/24 08:26:49;;;;;;;1.60;0.60;;;;;;;;;;103195;1320;22842;-29
2022/07/24 08:29:18;;;;;;;0.40;0.40;;;;;;;;;;103114;1320;22726;-29
2022/07/24 08:31:47;;;;;;;1.00;0.40;;;;;;;;;;103047;1323;24937;-29
2022/07/24 08:34:16;;;;;;;1.10;0.50;;;;;;;;;;103150;1323;22583;-29
2022/07/24 08:36:45;;;;;;;0.40;0.20;;;;;;;;;;103121;1320;22565;-25
2022/07/24 08:39:15;;;;;;;1.10;0.30;;;;;;;;;;103181;1321;23111;-29
2022/07/24 08:41:44;;;;;;;0.30;0.20;;;;;;;;;;103217;1314;22588;-25
2022/07/24 08:44:12;;;;;;;8.40;0.40;;;;;;;;;;103135;1313;22822;-29
2022/07/24 08:46:41;;;;;;;0.50;0.40;;;;;;;;;;103321;1313;23149;-25
2022/07/24 08:49:12;;;;;;;0.40;0.30;;;;;;;;;;103190;1320;22729;-29
2022/07/24 08:51:42;;;;;;;1.30;0.60;;;;;;;;;;103138;1320;22577;-25
2022/07/24 08:54:11;;;;;;;0.20;0.20;;;;;;;;;;103227;1314;22565;-28
2022/07/24 08:56:48;;;;;;;0.30;0.30;;;;;;;;;;103100;1313;22561;-26
2022/07/24 08:59:18;;;;;;;0.90;0.50;;;;;;;;;;103145;1323;23011;-29
2022/07/24 09:01:47;;;;;;;0.50;0.30;;;;;;;;;;103249;1313;22546;-25
2022/07/24 09:04:19;;;;;;;0.70;0.50;;;;;;;;;;103090;1320;22562;-27
2022/07/24 09:06:51;;;;;;;0.30;0.30;;;;;;;;;;103154;1320;22782;-29
2022/07/24 09:09:20;;;;;;;0.40;0.40;;;;;;;;;;103252;1320;23032;-29
2022/07/24 09:12:01;;;;;;;0.30;0.30;;;;;;;;;;103190;1314;22876;-25
2022/07/24 09:14:31;;;;;;;0.50;0.50;;;;;;;;;;103134;1320;22574;-25
2022/07/24 09:17:03;;;;;;;0.30;0.20;;;;;;;;;;103117;1326;22797;-31
2022/07/24 09:19:35;;;;;;;1.60;1.00;;;;;;;;;;103178;1320;22562;-25
2022/07/24 09:22:16;;;;;;;0.70;0.40;;;;;;;;;;103255;1320;22725;-25
2022/07/24 09:24:45;;;;;;;0.10;0.10;;;;;;;;;;103164;1322;22680;-32
2022/07/24 09:27:14;;;;;;;0.40;0.40;;;;;;;;;;103213;1325;22723;-28
2022/07/24 09:29:43;;;;;;;0.70;0.50;;;;;;;;;;103119;1320;22722;-25
2022/07/24 09:32:11;;;;;;;2.00;0.30;;;;;;;;;;103137;1323;22717;-31
2022/07/24 09:34:40;;;;;;;0.30;0.30;;;;;;;;;;103246;1323;22571;-24
2022/07/24 09:37:09;;;;;;;0.30;0.30;;;;;;;;;;103100;1316;22712;-28
2022/07/24 09:39:39;;;;;;;0.90;0.50;;;;;;;;;;103209;1326;22586;-29
2022/07/24 09:42:08;;;;;;;0.70;0.50;;;;;;;;;;103172;1314;22563;-28
2022/07/24 09:44:37;;;;;;;1.60;0.40;;;;;;;;;;103077;1326;22557;-29
2022/07/24 09:47:06;;;;;;;0.50;0.30;;;;;;;;;;103325;1314;22562;-29
2022/07/24 09:49:35;;;;;;;0.10;0.10;;;;;;;;;;103177;1320;22837;-28
2022/07/24 09:52:04;;;;;;;1.10;0.40;;;;;;;;;;103294;1326;22545;-29
2022/07/24 09:54:34;;;;;;;0.40;0.20;;;;;;;;;;103134;1323;22825;-25
2022/07/24 09:57:06;;;;;;;0.20;0.20;;;;;;;;;;103083;1313;22565;-28
2022/07/24 09:59:35;;;;;;;2.80;0.20;;;;;;;;;;102463;1320;1003914;-28
2022/07/24 10:02:04;;;;;;;1.10;0.10;;;;;;;;;;103096;1313;22828;-26
2022/07/24 10:04:33;;;;;;;10.80;0.20;;;;;;;;;;103231;1320;22558;-28
2022/07/24 10:07:01;;;;;;;0.60;0.20;;;;;;;;;;103187;1323;22838;-28
2022/07/24 10:09:30;;;;;;;0.20;0.20;;;;;;;;;;103131;1323;22899;-26
2022/07/24 10:11:59;;;;;;;0.20;0.10;;;;;;;;;;103330;1313;22832;-30
2022/07/24 10:14:28;;;;;;;1.10;0.40;;;;;;;;;;103074;1323;22567;-29
2022/07/24 10:17:00;;;;;;;0.70;0.20;;;;;;;;;;103154;1323;23366;-25
2022/07/24 10:19:31;;;;;;;0.30;0.20;;;;;;;;;;103154;1320;22567;-29
2022/07/24 10:22:00;;;;;;;0.10;0.10;;;;;;;;;;103148;1320;22544;-25
2022/07/24 10:24:32;;;;;;;0.90;0.30;;;;;;;;;;103280;1323;22867;-28
2022/07/24 10:27:02;;;;;;;1.50;0.30;;;;;;;;;;103164;1321;22551;-28
2022/07/24 10:29:32;;;;;;;0.60;0.20;;;;;;;;;;103191;1314;22735;-25
2022/07/24 10:32:01;;;;;;;0.30;0.20;;;;;;;;;;103190;1320;22643;-28
2022/07/24 10:34:34;;;;;;;0.00;0.00;;;;;;;;;;103284;1313;22573;-29
2022/07/24 10:37:03;;;;;;;0.20;0.20;;;;;;;;;;103201;1328;24213;-25
2022/07/24 10:39:43;;;;;;;0.30;0.30;;;;;;;;;;103211;1316;23150;-28
2022/07/24 10:42:12;;;;;;;0.20;0.20;;;;;;;;;;103179;1320;22574;-27
2022/07/24 10:44:41;;;;;;;0.20;0.20;;;;;;;;;;103307;1320;22722;-30
2022/07/24 10:47:14;;;;;;;0.10;0.10;;;;;;;;;;103188;1323;22830;-25
2022/07/24 10:49:44;;;;;;;2.30;0.40;;;;;;;;;;103250;1326;22567;-27
2022/07/24 10:52:16;;;;;;;0.60;0.20;;;;;;;;;;103162;1320;22801;-24
2022/07/24 10:54:57;;;;;;;0.30;0.20;;;;;;;;;;103273;1314;22733;-30
2022/07/24 10:57:29;;;;;;;0.20;0.20;;;;;;;;;;103180;1320;22568;-28
2022/07/24 10:59:58;;;;;;;0.20;0.20;;;;;;;;;;103252;1320;22589;-28
2022/07/24 11:02:28;;;;;;;0.50;0.30;;;;;;;;;;103178;1323;23012;-28
2022/07/24 11:05:09;;;;;;;0.60;0.30;;;;;;;;;;103290;1314;22558;-28
2022/07/24 11:07:49;;;;;;;0.40;0.30;;;;;;;;;;103211;1320;22850;-25
2022/07/24 11:10:30;;;;;;;1.40;0.30;;;;;;;;;;103251;1314;22736;-26
2022/07/24 11:12:59;;;;;;;2.00;0.30;;;;;;;;;;103155;1320;22514;-25
2022/07/24 11:18:04;;;;;;;0.50;0.30;;;;;;;;;;103161;1320;23157;-25
2022/07/24 11:20:32;;;;;;;;;;;;;;;;;;103197;1320;22797;-29
2022/07/24 11:23:01;;;;;;;0.30;0.20;;;;;;;;;;103135;1323;22736;-25
2022/07/24 11:25:30;;;;;;;0.40;0.30;;;;;;;;;;103207;1323;22675;-25
2022/07/24 11:28:07;;;;;;;1.50;0.40;;;;;;;;;;103158;1323;25355;-28
2022/07/24 11:30:40;;;;;;;0.30;0.30;;;;;;;;;;103197;1314;22580;-25
2022/07/24 11:33:09;;;;;;;0.60;0.30;;;;;;;;;;103210;1324;22859;-26
2022/07/24 11:35:38;;;;;;;0.40;0.30;;;;;;;;;;103258;1320;22781;-25
2022/07/24 11:38:07;;;;;;;0.40;0.40;;;;;;;;;;103236;1320;22555;-25
2022/07/24 11:40:36;;;;;;;0.60;0.30;;;;;;;;;;103157;1314;22972;-26
2022/07/24 11:43:05;;;;;;;0.50;0.40;;;;;;;;;;103212;1320;23031;-24
2022/07/24 11:45:34;;;;;;;0.60;0.40;;;;;;;;;;103148;1326;22862;-28
2022/07/24 11:48:03;;;;;;;1.20;0.30;;;;;;;;;;103226;1320;23022;-27
2022/07/24 11:50:34;;;;;;;0.30;0.30;;;;;;;;;;103239;1323;22548;-28
2022/07/24 11:53:05;;;;;;;0.50;0.50;;;;;;;;;;103164;1326;22735;-24
2022/07/24 11:55:34;;;;;;;0.20;0.20;;;;;;;;;;103168;1320;22694;-28
2022/07/24 11:58:03;;;;;;;0.60;0.30;;;;;;;;;;103230;1320;23021;-25
2022/07/24 12:00:31;;;;;;;0.50;0.30;;;;;;;;;;103322;1314;22984;-25
2022/07/24 12:03:01;;;;;;;0.50;0.30;;;;;;;;;;102822;1320;482345;-30
2022/07/24 12:05:31;;;;;;;1.40;0.30;;;;;;;;;;103120;1320;22691;-24
2022/07/24 12:08:00;;;;;;;0.50;0.40;;;;;;;;;;103248;1320;22545;-28
2022/07/24 12:10:29;;;;;;;0.40;0.30;;;;;;;;;;103217;1320;22814;-25
2022/07/24 12:12:58;;;;;;;0.60;0.50;;;;;;;;;;103012;1323;22775;-27
2022/07/24 12:15:27;;;;;;;0.70;0.40;;;;;;;;;;103208;1313;22683;-29
2022/07/24 12:17:56;;;;;;;1.60;0.40;;;;;;;;;;103263;1323;22571;-29
2022/07/24 12:20:26;;;;;;;0.50;0.40;;;;;;;;;;103310;1314;22593;-29
2022/07/24 12:22:55;;;;;;;2.20;0.50;;;;;;;;;;103148;1320;22795;-31
2022/07/24 12:25:24;;;;;;;0.90;0.40;;;;;;;;;;103235;1313;22622;-25
2022/07/24 12:27:56;;;;;;;0.60;0.40;;;;;;;;;;103134;1314;22757;-29
2022/07/24 12:30:26;;;;;;;1.20;0.80;;;;;;;;;;103189;1320;22551;-25
2022/07/24 12:32:57;;;;;;;2.20;0.60;;;;;;;;;;103222;1320;24289;-25
2022/07/24 12:35:26;;;;;;;1.50;0.20;;;;;;;;;;103201;1320;22990;-28
2022/07/24 12:37:55;;;;;;;0.40;0.30;;;;;;;;;;103153;1320;22548;-29
2022/07/24 12:40:25;;;;;;;0.80;0.40;;;;;;;;;;103235;1314;22718;-25
2022/07/24 12:42:55;;;;;;;0.80;0.60;;;;;;;;;;103268;1320;22664;-25
2022/07/24 12:45:24;;;;;;;0.90;0.60;;;;;;;;;;103192;1320;22694;-25
2022/07/24 12:47:56;;;;;;;1.00;0.30;;;;;;;;;;103225;1313;22881;-29
2022/07/24 12:50:25;;;;;;;0.40;0.40;;;;;;;;;;103185;1320;22708;-25
2022/07/24 12:53:01;;;;;;;2.00;0.40;;;;;;;;;;103236;1323;22794;-29
2022/07/24 12:55:30;;;;;;;9.40;0.50;;;;;;;;;;103156;1314;22577;-25
2022/07/24 12:58:00;;;;;;;0.80;0.50;;;;;;;;;;103052;1323;22589;-29
2022/07/24 13:00:29;;;;;;;0.80;0.40;;;;;;;;;;103281;1320;25470;-25
2022/07/24 13:02:57;;;;;;;0.70;0.40;;;;;;;;;;103189;1320;22644;-28
2022/07/24 13:05:30;;;;;;;0.40;0.30;;;;;;;;;;103367;1314;22545;-29
2022/07/24 13:07:59;;;;;;;3.20;0.40;;;;;;;;;;103142;1320;22544;-25
2022/07/24 13:10:27;;;;;;;0.40;0.20;;;;;;;;;;103254;1313;22575;-28
2022/07/24 13:12:56;;;;;;;0.30;0.30;;;;;;;;;;103269;1323;22562;-29
2022/07/24 13:15:25;;;;;;;0.30;0.30;;;;;;;;;;103151;1307;22539;-25
2022/07/24 13:17:54;;;;;;;1.80;0.40;;;;;;;;;;103222;1323;22990;-28
2022/07/24 13:20:23;;;;;;;0.40;0.20;;;;;;;;;;103102;1314;22822;-25
2022/07/24 13:22:52;;;;;;;0.40;0.30;;;;;;;;;;103342;1313;22548;-28
2022/07/24 13:25:20;;;;;;;0.40;0.40;;;;;;;;;;103171;1314;22619;-26
2022/07/24 13:27:49;;;;;;;0.40;0.20;;;;;;;;;;103270;1323;25702;-26
2022/07/24 13:30:18;;;;;;;1.60;0.50;;;;;;;;;;103300;1323;22622;-30
2022/07/24 13:32:47;;;;;;;0.40;0.40;;;;;;;;;;103197;1320;22689;-31
2022/07/24 13:35:16;;;;;;;0.20;0.10;;;;;;;;;;103327;1320;23036;-29
2022/07/24 13:38:22;;;;;;;0.10;0.10;;;;;;;;;;104589;1311;544874;-25
2022/07/24 13:40:51;;;;;;;0.50;0.40;;;;;;;;;;104631;1309;22534;-30
2022/07/24 13:43:20;;;;;;;0.40;0.20;;;;;;;;;;104607;1308;22667;-30
2022/07/24 13:45:50;;;;;;;11.20;0.30;;;;;;;;;;104658;1312;24657;-30
2022/07/24 13:48:28;;;;;;;0.40;0.40;;;;;;;;;;104563;1312;25251;-28
2022/07/24 13:50:57;;;;;;;0.60;0.40;;;;;;;;;;104229;1310;323710;-30
2022/07/24 13:53:26;;;;;;;0.40;0.20;;;;;;;;;;104735;1305;25256;-24
2022/07/24 13:55:54;;;;;;;0.50;0.40;;;;;;;;;;104820;1302;26895;-24
2022/07/24 13:58:23;;;;;;;0.40;0.30;;;;;;;;;;104807;1302;22523;-28
2022/07/24 14:01:02;;;;;;;0.30;0.30;;;;;;;;;;104742;1302;24613;-30
2022/07/24 14:03:31;;;;;;;0.00;0.00;;;;;;;;;;104863;1310;22536;-24
2022/07/24 14:06:00;;;;;;;0.30;0.20;;;;;;;;;;104728;1310;22585;-25
2022/07/24 14:08:29;;;;;;;0.40;0.30;;;;;;;;;;104941;1303;24593;-28
2022/07/24 14:10:57;;;;;;;1.00;0.30;;;;;;;;;;104815;1310;24254;-25
2022/07/24 14:13:27;;;;;;;0.20;0.20;;;;;;;;;;104692;1305;25207;-25
2022/07/24 14:15:55;;;;;;;3.80;0.20;;;;;;;;;;104889;1305;25197;-24
2022/07/24 14:18:24;;;;;;;0.50;0.40;;;;;;;;;;104792;1305;22523;-28
2022/07/24 14:20:53;;;;;;;0.60;0.40;;;;;;;;;;104696;1310;25205;-24
2022/07/24 14:23:22;;;;;;;2.20;0.20;;;;;;;;;;104810;1302;22530;-25
2022/07/24 14:25:51;;;;;;;7.30;0.40;;;;;;;;;;104784;1310;25270;-30
2022/07/24 14:28:20;;;;;;;1.00;0.30;;;;;;;;;;104864;1302;25252;-25
2022/07/24 14:30:49;;;;;;;0.80;0.10;;;;;;;;;;104853;1305;22523;-24
2022/07/24 14:33:18;;;;;;;6.60;0.30;;;;;;;;;;104745;1309;25267;-25
2022/07/24 14:35:46;;;;;;;0.10;0.10;;;;;;;;;;104934;1310;25234;-26
2022/07/24 14:38:15;;;;;;;3.00;2.40;;;;;;;;;;104214;1305;1003383;-29
2022/07/24 14:40:44;;;;;;;0.20;0.10;;;;;;;;;;104735;1302;25234;-24